Data for 07/02/2016

Time Sea-Level Adjusted Pressure Absolute Pressure Temperature Relative Humidity Dew Point   
(mb) (inHg) (mb) (inHg) (C) (F) (%) (C) (F)
00:05 1018 30.06 848 25.04 19.1 66.4 50 8.5 47.3
00:10 1019 30.09 848 25.04 19.3 66.8 46 7.6 45.7
00:15 1018 30.06 848 25.04 19.7 67.5 46 8 46.4
00:20 1018 30.06 847 25.01 19.6 67.3 47 8 46.4
00:25 1018 30.06 847 25.01 19.5 67.1 47 8 46.4
00:30 1018 30.06 847 25.01 19.5 67.1 45 7.5 45.5
00:35 1018 30.06 847 25.01 19.6 67.2 49 8.7 47.6
00:40 1018 30.06 847 25.01 19.5 67 43 6.8 44.3
00:45 1018 30.06 847 25.01 19.8 67.7 43 7.1 44.7
00:50 1018 30.06 847 25.01 19.9 67.8 44 7.4 45.3
00:55 1018 30.06 847 25.01 19.3 66.8 50 8.7 47.6
01:00 1018 30.06 847 25.01 18.9 66 48 7.6 45.8
01:05 1018 30.06 847 25.01 18.8 65.9 51 8.7 47.7
01:10 1018 30.06 847 25.01 18.4 65.1 52 8.6 47.4
01:15 1017 30.03 847 25.01 18.2 64.7 52 8.4 47.2
01:20 1017 30.03 847 25.01 18 64.3 54 8.7 47.7
01:25 1017 30.03 846 24.98 18.1 64.6 52 8.3 47
01:30 1017 30.03 847 25.01 18 64.5 56 9.3 48.8
01:35 1018 30.06 847 25.01 17.4 63.4 57 8.8 47.9
01:40 1017 30.03 847 25.01 17.4 63.4 56 8.6 47.4
01:45 1017 30.03 846 24.98 17.3 63.2 57 8.8 47.8
01:50 1017 30.03 846 24.98 17.2 62.9 58 8.8 47.9
01:55 1017 30.03 846 24.98 17.2 62.9 56 8.5 47.3
02:00 1017 30.03 846 24.98 17.3 63.2 55 8.2 46.7
02:05 1017 30.03 846 24.98 17.5 63.4 53 8 46.4
02:10 1017 30.03 846 24.98 17.8 64.1 51 7.5 45.6
02:15 1017 30.03 846 24.98 18 64.5 51 7.9 46.2
02:20 1017 30.03 846 24.98 17.8 64 54 8.4 47.2
02:25 1017 30.03 846 24.98 17.5 63.5 52 7.7 45.9
02:30 1017 30.03 846 24.98 17.9 64.1 49 7.2 44.9
02:35 1017 30.03 846 24.98 18.4 65.1 51 8.1 46.6
02:40 1017 30.03 847 25.01 18.1 64.6 52 8.3 47
02:45 1017 30.03 847 25.01 17.9 64.2 53 8.2 46.7
02:50 1017 30.03 847 25.01 17.9 64.1 54 8.5 47.3
02:55 1017 30.03 847 25.01 17.4 63.3 56 8.7 47.6
03:00 1017 30.03 847 25.01 17 62.6 58 8.9 48
03:05 1017 30.03 847 25.01 17.1 62.7 56 8.3 46.9
03:10 1017 30.03 847 25.01 16.8 62.3 57 8.3 47
03:15 1017 30.03 847 25.01 16.7 62 58 8.3 47
03:20 1018 30.06 847 25.01 16.4 61.5 60 8.8 47.8
03:25 1018 30.06 847 25.01 16.1 61.1 61 8.6 47.5
03:30 1018 30.06 847 25.01 16.1 61.1 60 8.4 47
03:35 1018 30.06 847 25.01 16.2 61.2 59 8.2 46.7
03:40 1018 30.06 847 25.01 16.2 61.1 60 8.6 47.4
03:45 1018 30.06 847 25.01 15.9 60.6 60 8.3 47
03:50 1018 30.06 847 25.01 15.7 60.2 60 8 46.3
03:55 1018 30.06 847 25.01 15.6 60 61 8.1 46.6
04:00 1018 30.06 847 25.01 15.4 59.6 64 8.6 47.4
04:05 1018 30.06 847 25.01 15 59 64 8.4 47
04:10 1018 30.06 847 25.01 14.9 58.8 65 8.4 47.2
04:15 1018 30.06 847 25.01 14.7 58.5 66 8.5 47.4
04:20 1018 30.06 847 25.01 14.6 58.4 66 8.4 47.2
04:25 1018 30.06 847 25.01 14.6 58.2 67 8.6 47.4
04:30 1018 30.06 847 25.01 14.4 57.9 67 8.3 46.9
04:35 1018 30.06 847 25.01 14.3 57.7 67 8.3 47
04:40 1018 30.06 847 25.01 14 57.3 68 8.2 46.8
04:45 1018 30.06 847 25.01 14 57.2 67 8 46.4
04:50 1018 30.06 847 25.01 14 57.1 68 8.2 46.7
04:55 1018 30.06 847 25.01 13.8 56.9 67 8 46.3
05:00 1018 30.06 847 25.01 13.8 56.8 68 8 46.5
05:05 1018 30.06 847 25.01 13.8 56.9 67 7.9 46.2
05:10 1018 30.06 847 25.01 14 57.2 63 7.2 45
05:15 1018 30.06 848 25.04 14.4 57.9 63 7.6 45.6
05:20 1018 30.06 848 25.04 14.5 58.1 63 7.6 45.6
05:25 1018 30.06 848 25.04 14.8 58.6 65 8.4 47.1
05:30 1018 30.06 848 25.04 15 58.9 63 8 46.5
05:35 1019 30.09 848 25.04 14.9 58.9 65 8.4 47.1
05:40 1019 30.09 848 25.04 14.9 58.8 63 8.1 46.5
05:45 1019 30.09 848 25.04 14.8 58.6 64 8 46.4
05:50 1019 30.09 848 25.04 14.7 58.5 64 8.1 46.6
05:55 1019 30.09 848 25.04 14.6 58.3 65 8.2 46.8
06:00 1019 30.09 848 25.04 14.6 58.3 65 8.2 46.7
06:05 1019 30.09 848 25.04 14.8 58.7 64 8.2 46.7
06:10 1019 30.09 848 25.04 15.2 59.3 63 8.3 47
06:15 1019 30.09 848 25.04 15.6 60 63 8.6 47.4
06:20 1019 30.09 848 25.04 15.8 60.4 63 8.9 48
06:25 1019 30.09 848 25.04 16.1 60.9 61 8.7 47.7
06:30 1019 30.09 848 25.04 16.4 61.5 60 8.8 47.9
06:35 1019 30.09 848 25.04 16.7 62 61 9.2 48.5
06:40 1019 30.09 848 25.04 17 62.5 59 8.9 48
06:45 1019 30.09 848 25.04 17.3 63.2 57 8.8 47.8
06:50 1019 30.09 848 25.04 17.9 64.2 55 8.9 48
06:55 1019 30.09 848 25.04 18.5 65.2 54 9.1 48.4
07:00 1019 30.09 848 25.04 19.1 66.4 52 9 48.2
07:05 1019 30.09 848 25.04 19.8 67.7 50 9.3 48.7
07:10 1019 30.09 848 25.04 19.8 67.6 51 9.4 48.9
07:15 1019 30.09 848 25.04 19.5 67 51 9.3 48.8
07:20 1019 30.09 848 25.04 19.6 67.2 52 9.6 49.3
07:25 1019 30.09 848 25.04 19.5 67.2 51 9.3 48.7
07:30 1019 30.09 848 25.04 19.8 67.7 50 9.2 48.6
07:35 1019 30.09 848 25.04 20.2 68.4 48 9 48.2
07:40 1019 30.09 848 25.04 20.4 68.6 48 9 48.2
07:45 1019 30.09 848 25.04 20.3 68.5 48 9 48.3
07:50 1019 30.09 848 25.04 20.9 69.6 48 9.7 49.5
07:55 1019 30.09 848 25.04 21.4 70.5 45 9.1 48.4
08:00 1019 30.09 848 25.04 22.2 71.9 43 9.3 48.7
08:05 1019 30.09 848 25.04 21.9 71.4 42 8.5 47.3
08:10 1019 30.09 848 25.04 22.7 72.9 39 8.3 46.9
08:15 1019 30.09 848 25.04 23.5 74.2 39 8.8 47.8
08:20 1019 30.09 848 25.04 24 75.1 35 7.6 45.7
08:25 1019 30.09 848 25.04 24.6 76.2 35 8.5 47.2
08:30 1019 30.09 848 25.04 24.2 75.5 37 8.8 47.8
08:35 1019 30.09 848 25.04 24.2 75.5 36 8.6 47.5
08:40 1019 30.09 848 25.04 24.7 76.5 35 8.6 47.4
08:45 1019 30.09 848 25.04 24.7 76.5 32 7.2 45
08:50 1019 30.09 848 25.04 24.4 75.8 36 8.5 47.3
08:55 1019 30.09 848 25.04 24.4 76 33 7.5 45.6
09:00 1019 30.09 848 25.04 24.6 76.2 30 6.3 43.3
09:05 1019 30.09 848 25.04 24.7 76.5 31 6.8 44.2
09:10 1019 30.09 848 25.04 25.1 77.2 31 7.2 44.9
09:15 1019 30.09 848 25.04 25 77 35 8.6 47.5
09:20 1019 30.09 848 25.04 24.5 76.1 35 8.5 47.2
09:25 1019 30.09 848 25.04 24.4 75.9 36 8.7 47.7
09:30 1019 30.09 848 25.04 24.4 75.9 33 7.2 45
09:35 1019 30.09 848 25.04 24.9 76.8 32 7.4 45.3
09:40 1019 30.09 848 25.04 25.1 77.2 30 6.7 44
09:45 1019 30.09 848 25.04 25.1 77.2 32 7.4 45.3
09:50 1019 30.09 848 25.04 25.2 77.3 31 6.9 44.4
09:55 1019 30.09 848 25.04 25.4 77.7 31 7.1 44.8
10:00 1019 30.09 848 25.04 25.4 77.8 30 6.7 44.1
10:05 1019 30.09 848 25.04 25.8 78.5 30 7 44.6
10:10 1019 30.09 848 25.04 25.4 77.8 30 7.1 44.8
10:15 1019 30.09 848 25.04 25.5 77.9 29 6.5 43.7
10:20 1019 30.09 848 25.04 25.7 78.2 29 6.4 43.5
10:25 1019 30.09 848 25.04 25.8 78.4 26 5.3 41.6
10:30 1019 30.09 848 25.04 26.1 79 27 5.8 42.5
10:35 1019 30.09 848 25.04 27.1 80.8 26 6.4 43.4
10:40 1019 30.09 848 25.04 27 80.5 27 6.4 43.6
10:45 1018 30.06 848 25.04 26.8 80.3 26 6.2 43.2
10:50 1018 30.06 848 25.04 26.9 80.4 26 5.8 42.4
10:55 1018 30.06 848 25.04 26.8 80.3 25 5.2 41.3
11:00 1018 30.06 847 25.01 26.9 80.4 23 4.2 39.5
11:05 1018 30.06 847 25.01 27.3 81.1 23 4.6 40.4
11:10 1018 30.06 847 25.01 27.4 81.3 22 3.9 39
11:15 1018 30.06 847 25.01 27.3 81.1 22 3.8 38.9
11:20 1018 30.06 847 25.01 27.4 81.2 22 4.2 39.6
11:25 1018 30.06 847 25.01 27.4 81.2 20 3.1 37.5
11:30 1018 30.06 847 25.01 27.8 82 21 4.1 39.3
11:35 1018 30.06 847 25.01 28 82.5 22 4.6 40.3
11:40 1018 30.06 847 25.01 28.1 82.7 21 4.3 39.8
11:45 1018 30.06 847 25.01 28 82.5 22 4.7 40.4
11:50 1018 30.06 847 25.01 28.3 82.9 21 4.3 39.7
11:55 1018 30.06 847 25.01 28.8 83.8 21 4.7 40.4
12:00 1018 30.06 847 25.01 28.9 84 22 5.2 41.4
12:05 1017 30.03 847 25.01 28.6 83.4 22 5.3 41.6
12:10 1017 30.03 847 25.01 27.7 81.8 21 3.4 38.1
12:15 1017 30.03 847 25.01 27.2 81 21 3.4 38.2
12:20 1017 30.03 847 25.01 27.8 82 23 5.4 41.6
12:25 1017 30.03 846 24.98 27.9 82.3 23 5 41
12:30 1017 30.03 846 24.98 28.3 82.9 23 5.6 42.1
12:35 1017 30.03 846 24.98 27.8 82.1 24 5.5 41.9
12:40 1017 30.03 846 24.98 27.5 81.5 25 5.9 42.5
12:45 1017 30.03 846 24.98 27.9 82.3 24 5.8 42.4
12:50 1017 30.03 846 24.98 28.4 83.2 24 6.1 42.9
12:55 1017 30.03 846 24.98 28 82.5 24 5.7 42.3
13:00 1017 30.03 846 24.98 28.9 84 23 5.8 42.5
13:05 1017 30.03 846 24.98 28.6 83.5 24 6.3 43.3
13:10 1017 30.03 846 24.98 28.5 83.2 23 5.7 42.3
13:15 1017 30.03 846 24.98 28.9 84 23 6.2 43.2
13:20 1017 30.03 846 24.98 28.3 82.9 24 5.9 42.6
13:25 1017 30.03 846 24.98 28.6 83.5 22 5.4 41.7
13:30 1017 30.03 846 24.98 29.8 85.6 21 5.7 42.2
13:35 1017 30.03 846 24.98 29.7 85.4 20 4.7 40.5
13:40 1017 30.03 846 24.98 29.3 84.7 21 4.8 40.6
13:45 1017 30.03 846 24.98 29.9 85.8 20 5.1 41.2
13:50 1017 30.03 846 24.98 29.5 85 20 4.8 40.7
13:55 1016 30 846 24.98 28.7 83.7 21 4.4 40
14:00 1016 30 846 24.98 28.5 83.2 21 4.5 40
14:05 1016 30 846 24.98 28.7 83.6 22 4.9 40.9
14:10 1016 30 846 24.98 29.3 84.7 20 4.4 39.8
14:15 1016 30 846 24.98 30 86 20 5.3 41.5
14:20 1016 30 846 24.98 29.5 85 20 4.2 39.6
14:25 1016 30 845 24.95 30.2 86.4 20 5 41
14:30 1016 30 845 24.95 30.4 86.7 19 4.8 40.7
14:35 1016 30 845 24.95 29.6 85.2 20 4.5 40.1
14:40 1016 30 845 24.95 29.9 85.8 20 4.7 40.4
14:45 1016 30 845 24.95 30.3 86.5 19 4.7 40.4
14:50 1016 30 845 24.95 30.2 86.4 19 4.7 40.5
14:55 1016 30 845 24.95 30.1 86.2 20 4.9 40.8
15:00 1016 30 845 24.95 30.5 86.8 19 4.6 40.3
15:05 1016 30 845 24.95 30.3 86.5 19 4.5 40.2
15:10 1016 30 845 24.95 30.8 87.5 19 4.8 40.6
15:15 1016 30 845 24.95 30.7 87.2 20 5.3 41.5
15:20 1016 30 845 24.95 30.4 86.7 20 5.2 41.4
15:25 1016 30 845 24.95 30.8 87.4 19 4.9 40.8
15:30 1016 30 845 24.95 30.7 87.2 18 4.2 39.5
15:35 1016 30 845 24.95 30.4 86.8 19 4.3 39.8
15:40 1016 30 845 24.95 29.4 84.8 18 3 37.4
15:45 1016 30 845 24.95 29.9 85.7 19 3.9 39
15:50 1016 30 845 24.95 30.8 87.4 18 3.8 38.8
15:55 1016 30 845 24.95 31.2 88.1 16 2.9 37.2
16:00 1016 30 845 24.95 31.2 88.2 16 2.6 36.7
16:05 1016 30 845 24.95 30.9 87.6 17 3.2 37.8
16:10 1016 30 845 24.95 30.2 86.3 17 2.8 37
16:15 1016 30 845 24.95 30.4 86.8 17 3.1 37.6
16:20 1016 30 845 24.95 30.4 86.8 16 2.4 36.4
16:25 1016 30 845 24.95 29.5 85.1 18 3 37.5
16:30 1016 30 845 24.95 29.4 84.9 18 3.1 37.6
16:35 1016 30 845 24.95 29.3 84.8 18 2.6 36.7
16:40 1016 30 845 24.95 29.9 85.8 16 1.8 35.2
16:45 1016 30 845 24.95 30.6 87 16 2.1 35.9
16:50 1016 30 845 24.95 30.4 86.7 15 1.4 34.5
16:55 1016 30 845 24.95 30.7 87.2 15 1.3 34.3
17:00 1015 29.97 845 24.95 30.8 87.5 15 1.9 35.5
17:05 1015 29.97 845 24.95 30.6 87.1 15 1.8 35.3
17:10 1015 29.97 845 24.95 29.9 85.9 17 2.4 36.3
17:15 1015 29.97 845 24.95 29.8 85.6 16 1.2 34.2
17:20 1015 29.97 844 24.92 30.7 87.3 15 1.3 34.3
17:25 1015 29.97 844 24.92 30.4 86.8 15 1.4 34.5
17:30 1015 29.97 844 24.92 30.9 87.6 15 1.2 34.2
17:35 1015 29.97 844 24.92 30.4 86.6 15 1.1 34
17:40 1015 29.97 844 24.92 30.6 87.1 15 1.1 34
17:45 1015 29.97 844 24.92 30.4 86.7 15 1.2 34.2
17:50 1015 29.97 844 24.92 30.1 86.2 15 1.2 34.1
17:55 1015 29.97 844 24.92 29.8 85.6 15 0.8 33.4
18:00 1015 29.97 844 24.92 29.7 85.5 16 1.2 34.1
18:05 1015 29.97 844 24.92 29.1 84.5 18 2.4 36.4
18:10 1015 29.97 844 24.92 28.7 83.7 19 2.8 37
18:15 1015 29.97 844 24.92 28.9 84 18 2.3 36.1
18:20 1015 29.97 844 24.92 28.9 84 18 2.6 36.6
18:25 1015 29.97 844 24.92 28.9 83.9 18 2.9 37.1
18:30 1015 29.97 844 24.92 28.7 83.7 18 2.7 36.8
18:35 1015 29.97 844 24.92 28.6 83.4 19 3.1 37.6
18:40 1015 29.97 844 24.92 28.4 83.1 20 3.3 37.9
18:45 1015 29.97 845 24.95 28.2 82.8 20 3.6 38.5
18:50 1015 29.97 845 24.95 28 82.5 21 4.2 39.6
18:55 1015 29.97 845 24.95 27.8 82.1 23 5 40.9
19:00 1015 29.97 845 24.95 27.7 81.9 24 5.5 41.9
19:05 1015 29.97 845 24.95 27.6 81.7 24 5.7 42.3
19:10 1015 29.97 845 24.95 27.5 81.5 26 6.6 43.9
19:15 1015 29.97 845 24.95 27.3 81.1 27 6.9 44.5
19:20 1015 29.97 845 24.95 27.1 80.7 24 5.1 41.3
19:25 1016 30 845 24.95 26.8 80.2 26 6.2 43.1
19:30 1016 30 845 24.95 26.5 79.7 25 5.2 41.4
19:35 1016 30 845 24.95 26.1 79 25 4.6 40.3
19:40 1016 30 845 24.95 25.8 78.4 25 4.6 40.2
19:45 1016 30 845 24.95 25.5 78 25 4.2 39.5
19:50 1016 30 845 24.95 25.3 77.6 25 4.1 39.4
19:55 1016 30 845 24.95 25.1 77.1 25 3.9 39
20:00 1016 30 845 24.95 24.9 76.8 25 3.9 39.1
20:05 1016 30 845 24.95 24.7 76.5 25 3.9 39
20:10 1016 30 845 24.95 24.5 76.2 26 3.9 39
20:15 1016 30 845 24.95 24.3 75.8 26 3.8 38.9
20:20 1016 30 845 24.95 24.2 75.5 27 4 39.2
20:25 1016 30 846 24.98 24 75.3 27 3.9 39.1
20:30 1017 30.03 846 24.98 24 75.2 27 4.3 39.7
20:35 1017 30.03 846 24.98 23.7 74.7 34 7.2 44.9
20:40 1017 30.03 846 24.98 22.8 73 37 7.7 45.9
20:45 1017 30.03 846 24.98 22.2 72 37 7.2 44.9
20:50 1017 30.03 846 24.98 22.2 72 35 6.1 43
20:55 1017 30.03 847 25.01 22.4 72.2 33 5.4 41.7
21:00 1017 30.03 847 25.01 22.5 72.5 32 5.2 41.4
21:05 1018 30.06 847 25.01 22.7 72.8 31 5.1 41.1
21:10 1018 30.06 847 25.01 22.6 72.8 32 5.3 41.6
21:15 1018 30.06 847 25.01 22.5 72.5 32 5 40.9
21:20 1018 30.06 847 25.01 22.3 72.1 33 5.6 42.1
21:25 1018 30.06 848 25.04 21.8 71.2 33 4.9 40.9
21:30 1019 30.09 848 25.04 21.5 70.6 34 5 41
21:35 1019 30.09 848 25.04 21.2 70.2 35 5.3 41.6
21:40 1019 30.09 848 25.04 20.9 69.5 37 5.6 42.1
21:45 1019 30.09 848 25.04 20.6 69 37 5.7 42.2
21:50 1019 30.09 848 25.04 20.4 68.8 38 5.7 42.2
21:55 1019 30.09 848 25.04 20.3 68.5 39 5.9 42.7
22:00 1019 30.09 848 25.04 20.1 68.2 40 6.1 42.9
22:05 1019 30.09 848 25.04 20 67.9 40 6 42.8
22:10 1019 30.09 848 25.04 19.9 67.9 41 6.3 43.4
22:15 1019 30.09 848 25.04 19.9 67.7 38 5.2 41.3
22:20 1019 30.09 848 25.04 19.8 67.7 40 5.9 42.6
22:25 1019 30.09 848 25.04 19.6 67.4 42 6.5 43.6
22:30 1019 30.09 848 25.04 19.3 66.7 40 5.6 42.1
22:35 1019 30.09 848 25.04 19.5 67 40 5.6 42.1
22:40 1019 30.09 848 25.04 19.5 67 41 6 42.9
22:45 1019 30.09 848 25.04 19.3 66.8 40 5.6 42.2
22:50 1019 30.09 848 25.04 19.4 67 40 5.6 42.1
22:55 1019 30.09 848 25.04 19.5 67.1 41 5.9 42.7
23:00 1019 30.09 849 25.07 19.4 67 44 6.9 44.4
23:05 1020 30.12 849 25.07 19.2 66.6 43 6.6 43.8
23:10 1019 30.09 849 25.07 19.2 66.6 44 6.8 44.2
23:15 1020 30.12 849 25.07 19.3 66.7 44 7 44.5
23:20 1019 30.09 849 25.07 19.2 66.6 43 6.5 43.7
23:25 1019 30.09 848 25.04 19.2 66.5 44 6.7 44
23:30 1019 30.09 848 25.04 19 66.2 44 6.8 44.2
23:35 1019 30.09 848 25.04 19 66.2 44 6.7 44
23:40 1019 30.09 848 25.04 19 66.1 43 6.4 43.5
23:45 1019 30.09 848 25.04 18.9 66 44 6.4 43.6
23:50 1019 30.09 848 25.04 18.9 66 44 6.5 43.7
23:55 1019 30.09 848 25.04 18.8 65.8 49 8 46.4
24:00 1019 30.09 848 25.04 18.6 65.4 48 7.5 45.4